Time;durP1;ratioP1;P1;durP2;ratioP2;P2;SDS_P1;SDS_P2;PMS_P1;PMS_P2;Temp;Humidity;BMP_temperature;BMP_pressure;BME280_temperature;BME280_humidity;BME280_pressure;Samples;Min_cycle;Max_cycle;Signal;HPM_P1;HPM_P2
2022/03/28 00:01:46;;;;;;;10.07;9.00;;;7.30;99.90;;;;;;5035119;28;20037;-72
2022/03/28 00:04:11;;;;;;;13.90;9.60;;;7.30;99.90;;;;;;5034829;28;20103;-72
2022/03/28 00:06:37;;;;;;;13.05;9.77;;;7.20;99.90;;;;;;5034886;28;20420;-72
2022/03/28 00:09:05;;;;;;;13.75;10.60;;;7.30;99.90;;;;;;5034983;28;20043;-71
2022/03/28 00:11:31;;;;;;;11.43;10.05;;;7.20;99.90;;;;;;5034622;28;20513;-71
2022/03/28 00:13:56;;;;;;;13.98;10.43;;;7.20;99.90;;;;;;5035376;28;20064;-72
2022/03/28 00:16:22;;;;;;;21.83;12.90;;;7.10;99.90;;;;;;5034442;28;20459;-73
2022/03/28 00:18:48;;;;;;;16.42;12.15;;;7.10;99.90;;;;;;5034784;28;20033;-72
2022/03/28 00:21:13;;;;;;;16.45;11.70;;;7.20;99.90;;;;;;5034649;28;20325;-71
2022/03/28 00:23:39;;;;;;;13.63;10.80;;;7.20;99.90;;;;;;5034702;28;20060;-72
2022/03/28 00:26:04;;;;;;;13.98;11.32;;;7.20;99.90;;;;;;5021223;28;20056;-72
2022/03/28 00:28:30;;;;;;;16.30;12.80;;;7.30;99.90;;;;;;5015093;28;20124;-72
2022/03/28 00:30:55;;;;;;;12.88;11.45;;;7.30;99.90;;;;;;5014501;28;20045;-72
2022/03/28 00:33:21;;;;;;;17.63;12.85;;;7.30;99.90;;;;;;5015143;28;20037;-71
2022/03/28 00:35:47;;;;;;;18.85;12.60;;;7.30;99.90;;;;;;5014697;28;20045;-73
2022/03/28 00:38:12;;;;;;;13.57;11.68;;;7.20;99.90;;;;;;5015074;28;20042;-72
2022/03/28 00:40:39;;;;;;;16.52;11.70;;;7.20;99.90;;;;;;5015159;28;20042;-72
2022/03/28 00:43:07;;;;;;;13.70;11.27;;;7.20;99.90;;;;;;5014805;28;20038;-71
2022/03/28 00:45:33;;;;;;;12.20;10.93;;;7.20;99.90;;;;;;5014531;28;20053;-72
2022/03/28 00:48:00;;;;;;;13.63;10.38;;;7.20;99.90;;;;;;5014152;28;20536;-71
2022/03/28 00:50:28;;;;;;;17.17;11.93;;;7.10;99.90;;;;;;5014462;28;20084;-72
2022/03/28 00:52:54;;;;;;;11.95;9.88;;;7.10;99.90;;;;;;5015150;28;20056;-71
2022/03/28 00:55:20;;;;;;;15.90;9.02;;;7.20;99.90;;;;;;5014471;28;20095;-72
2022/03/28 00:57:46;;;;;;;13.23;8.93;;;7.10;99.90;;;;;;4997865;28;20053;-72
2022/03/28 01:00:12;;;;;;;13.00;8.10;;;7.10;99.90;;;;;;5016625;28;20038;-71
2022/03/28 01:02:38;;;;;;;10.02;7.07;;;7.20;99.90;;;;;;5018379;28;20176;-72
2022/03/28 01:05:04;;;;;;;9.40;6.45;;;7.10;99.90;;;;;;5018540;28;20124;-72
2022/03/28 01:07:30;;;;;;;11.80;7.47;;;7.10;99.90;;;;;;5018033;28;20073;-71
2022/03/28 01:09:59;;;;;;;7.70;6.65;;;7.10;99.90;;;;;;5018339;28;20113;-72
2022/03/28 01:12:31;;;;;;;9.93;6.30;;;7.10;99.90;;;;;;5017850;28;20532;-72
2022/03/28 01:14:57;;;;;;;10.25;6.80;;;7.10;99.90;;;;;;5018121;28;20052;-72
2022/03/28 01:20:09;;;;;;;7.97;5.80;;;6.90;99.90;;;;;;5018019;28;20124;-72
2022/03/28 01:22:35;;;;;;;9.98;5.53;;;6.90;99.90;;;;;;5018027;28;20042;-73
2022/03/28 01:25:02;;;;;;;7.90;5.82;;;6.90;99.90;;;;;;5017750;28;20076;-72
2022/03/28 01:27:28;;;;;;;7.28;5.60;;;6.90;99.90;;;;;;5017963;28;20065;-71
2022/03/28 01:29:53;;;;;;;5.88;4.70;;;6.90;99.90;;;;;;5017837;28;20045;-71
2022/03/28 01:32:19;;;;;;;6.05;4.50;;;6.80;99.90;;;;;;5017591;28;20053;-72
2022/03/28 01:34:45;;;;;;;6.30;4.57;;;6.80;99.90;;;;;;5017683;28;20073;-71
2022/03/28 01:37:11;;;;;;;5.07;4.32;;;6.80;99.90;;;;;;5017953;28;20372;-72
2022/03/28 01:39:36;;;;;;;6.07;4.53;;;6.80;99.90;;;;;;5017991;28;20439;-73
2022/03/28 01:42:02;;;;;;;8.25;4.40;;;6.80;99.90;;;;;;5017759;28;20042;-73
2022/03/28 01:44:28;;;;;;;5.60;4.05;;;6.70;99.90;;;;;;5017532;28;20033;-71
2022/03/28 01:46:53;;;;;;;8.60;4.32;;;6.70;99.90;;;;;;5017509;28;20041;-72
2022/03/28 01:49:20;;;;;;;6.50;4.43;;;6.60;99.90;;;;;;5018045;28;20052;-72
2022/03/28 01:51:47;;;;;;;5.28;4.18;;;6.70;99.90;;;;;;5017527;28;20084;-72
2022/03/28 01:54:13;;;;;;;7.95;4.45;;;6.60;99.90;;;;;;5017562;28;20042;-73
2022/03/28 01:56:39;;;;;;;6.13;4.35;;;6.60;99.90;;;;;;5016899;28;20088;-71
2022/03/28 01:59:06;;;;;;;5.00;4.10;;;6.60;99.90;;;;;;5017617;28;20038;-72
2022/03/28 02:01:32;;;;;;;6.15;4.65;;;6.70;99.90;;;;;;5017249;28;20325;-71
2022/03/28 02:03:58;;;;;;;5.85;4.70;;;6.60;99.90;;;;;;5017934;28;20068;-72
2022/03/28 02:06:24;;;;;;;6.35;4.85;;;6.70;99.90;;;;;;5017491;28;20507;-72
2022/03/28 02:08:50;;;;;;;8.65;5.57;;;6.70;99.90;;;;;;5017169;28;20077;-72
2022/03/28 02:11:16;;;;;;;9.73;5.88;;;6.70;99.90;;;;;;5016457;28;20096;-72
2022/03/28 02:13:41;;;;;;;7.07;5.10;;;6.70;99.90;;;;;;5017816;28;20077;-72
2022/03/28 02:16:07;;;;;;;8.73;5.45;;;6.70;99.90;;;;;;5017099;28;20052;-72
2022/03/28 02:18:33;;;;;;;7.25;5.55;;;6.70;99.90;;;;;;5016925;28;20084;-72
2022/03/28 02:20:58;;;;;;;7.80;5.43;;;6.70;99.90;;;;;;5016872;28;20042;-72
2022/03/28 02:23:24;;;;;;;8.40;5.93;;;6.70;99.90;;;;;;5017155;28;20046;-72
2022/03/28 02:25:50;;;;;;;12.15;5.80;;;6.70;99.90;;;;;;5016652;28;20414;-71
2022/03/28 02:28:15;;;;;;;9.35;5.90;;;6.70;99.90;;;;;;5016976;28;20041;-72
2022/03/28 02:30:42;;;;;;;7.63;5.70;;;6.70;99.90;;;;;;5016590;28;20052;-71
2022/03/28 02:33:08;;;;;;;18.90;5.53;;;6.70;99.90;;;;;;5016602;28;20041;-72
2022/03/28 02:35:34;;;;;;;6.20;5.20;;;6.80;99.90;;;;;;5016755;28;20034;-71
2022/03/28 02:38:01;;;;;;;7.50;5.35;;;6.70;99.90;;;;;;5016872;28;20123;-71
2022/03/28 02:40:31;;;;;;;8.93;5.53;;;6.70;99.90;;;;;;5016401;28;20060;-72
2022/03/28 02:42:58;;;;;;;12.73;5.88;;;6.60;99.90;;;;;;5016494;28;20078;-72
2022/03/28 02:45:24;;;;;;;7.15;5.43;;;6.60;99.90;;;;;;5016527;28;20103;-72
2022/03/28 02:47:50;;;;;;;11.40;5.40;;;6.60;99.90;;;;;;5016466;28;20034;-72
2022/03/28 02:50:15;;;;;;;9.27;4.88;;;6.50;99.90;;;;;;5016363;28;20056;-72
2022/03/28 02:52:41;;;;;;;12.38;5.05;;;6.50;99.90;;;;;;5016607;28;20038;-70
2022/03/28 02:55:07;;;;;;;7.85;5.00;;;6.50;99.90;;;;;;5016094;28;20073;-72
2022/03/28 02:57:33;;;;;;;7.05;5.03;;;6.50;99.90;;;;;;4998033;28;20093;-71
2022/03/28 02:59:59;;;;;;;9.23;4.82;;;6.50;99.90;;;;;;5016509;28;20526;-72
2022/03/28 03:02:25;;;;;;;6.38;4.75;;;6.50;99.90;;;;;;5016098;28;20444;-72
2022/03/28 03:04:50;;;;;;;9.65;5.05;;;6.40;99.90;;;;;;5016107;28;20081;-71
2022/03/28 03:07:16;;;;;;;6.90;4.90;;;6.40;99.90;;;;;;5016239;28;20096;-71
2022/03/28 03:09:41;;;;;;;8.02;5.20;;;6.40;99.90;;;;;;5015462;28;20048;-71
2022/03/28 03:12:08;;;;;;;7.75;5.35;;;6.30;99.90;;;;;;5016128;28;20041;-71
2022/03/28 03:14:33;;;;;;;7.97;5.80;;;6.40;99.90;;;;;;5015969;28;20042;-72
2022/03/28 03:16:59;;;;;;;7.15;5.05;;;6.40;99.90;;;;;;5015839;28;20040;-72
2022/03/28 03:19:24;;;;;;;7.75;5.10;;;6.40;99.90;;;;;;5016054;28;20103;-71
2022/03/28 03:21:50;;;;;;;10.02;5.93;;;6.40;99.90;;;;;;4997535;28;20149;-71
2022/03/28 03:24:16;;;;;;;7.65;5.55;;;6.40;99.90;;;;;;5015769;28;20117;-72
2022/03/28 03:26:42;;;;;;;9.90;6.15;;;6.50;99.90;;;;;;5015960;28;20463;-71
2022/03/28 03:29:08;;;;;;;11.10;6.22;;;6.40;99.90;;;;;;5015435;28;20077;-72
2022/03/28 03:31:33;;;;;;;8.63;6.80;;;6.40;99.90;;;;;;5015576;28;20104;-72
2022/03/28 03:33:59;;;;;;;9.63;7.05;;;6.40;99.90;;;;;;5015283;28;20084;-71
2022/03/28 03:36:25;;;;;;;11.07;7.03;;;6.50;99.90;;;;;;5015765;28;20038;-70
2022/03/28 03:38:51;;;;;;;9.88;7.28;;;6.50;99.90;;;;;;5015249;28;20037;-73
2022/03/28 03:41:16;;;;;;;11.32;7.25;;;6.50;99.90;;;;;;5015800;28;20034;-72
2022/03/28 03:43:44;;;;;;;11.38;7.20;;;6.50;99.90;;;;;;5015007;28;20129;-72
2022/03/28 03:46:09;;;;;;;9.68;7.57;;;6.40;99.90;;;;;;5015572;28;20119;-72
2022/03/28 03:48:35;;;;;;;14.18;8.57;;;6.40;99.90;;;;;;5015187;28;20476;-71
2022/03/28 03:51:01;;;;;;;10.15;7.78;;;6.40;99.90;;;;;;5015367;28;20356;-71
2022/03/28 03:53:26;;;;;;;9.68;7.55;;;6.40;99.90;;;;;;5015702;28;20062;-71
2022/03/28 03:55:52;;;;;;;14.70;8.82;;;6.40;99.90;;;;;;5015602;28;20053;-71
2022/03/28 03:58:17;;;;;;;13.63;8.13;;;6.40;99.90;;;;;;5014735;28;20073;-71
2022/03/28 04:00:43;;;;;;;12.25;8.40;;;6.40;99.90;;;;;;5015390;28;20046;-72
2022/03/28 04:03:09;;;;;;;13.38;8.70;;;6.40;99.90;;;;;;5015400;28;20084;-72
2022/03/28 04:05:37;;;;;;;12.77;7.43;;;6.40;99.90;;;;;;5015423;28;20444;-72
2022/03/28 04:08:05;;;;;;;9.32;7.70;;;6.40;99.90;;;;;;5015155;28;20041;-72
2022/03/28 04:10:31;;;;;;;10.80;7.95;;;6.40;99.90;;;;;;5013858;28;20476;-71
2022/03/28 04:12:57;;;;;;;11.15;7.78;;;6.40;99.90;;;;;;5013583;28;20444;-72
2022/03/28 04:15:23;;;;;;;12.50;8.32;;;6.40;99.90;;;;;;5015440;28;20053;-71
2022/03/28 04:17:49;;;;;;;11.35;8.32;;;6.40;99.90;;;;;;5015119;28;20506;-72
2022/03/28 04:20:16;;;;;;;9.88;7.20;;;6.50;99.90;;;;;;4998020;28;20042;-72
2022/03/28 04:22:42;;;;;;;10.05;8.25;;;6.50;99.90;;;;;;5015124;28;20038;-72
2022/03/28 04:25:09;;;;;;;10.48;7.18;;;6.50;99.90;;;;;;5015126;28;20144;-72
2022/03/28 04:27:36;;;;;;;10.57;8.57;;;6.50;99.90;;;;;;5014244;28;20049;-72
2022/03/28 04:30:09;;;;;;;9.95;8.20;;;6.60;99.90;;;;;;5014830;28;20053;-72
2022/03/28 04:32:36;;;;;;;9.32;7.55;;;6.50;99.90;;;;;;5014785;28;20053;-72
2022/03/28 04:35:03;;;;;;;9.10;6.88;;;6.50;99.90;;;;;;5018399;28;20121;-71
2022/03/28 04:37:38;;;;;;;13.65;7.60;;;6.60;99.90;;;;;;5019484;28;20124;-71
2022/03/28 04:40:06;;;;;;;10.95;7.30;;;6.60;99.90;;;;;;5018552;28;20092;-72
2022/03/28 04:42:33;;;;;;;9.07;6.78;;;6.50;99.90;;;;;;5018268;28;20445;-70
2022/03/28 04:44:58;;;;;;;8.95;7.07;;;6.50;99.90;;;;;;5018579;28;20037;-72
2022/03/28 04:47:24;;;;;;;10.15;7.50;;;6.50;99.90;;;;;;5018517;28;20096;-72
2022/03/28 04:49:49;;;;;;;9.55;6.75;;;6.50;99.90;;;;;;5037376;28;20118;-72
2022/03/28 04:52:15;;;;;;;7.90;6.68;;;6.50;99.90;;;;;;5037373;28;20056;-72
2022/03/28 04:54:41;;;;;;;10.10;7.18;;;6.50;99.90;;;;;;5025977;28;20029;-72
2022/03/28 04:57:06;;;;;;;9.50;7.00;;;6.50;99.90;;;;;;5018110;28;20046;-73
2022/03/28 04:59:32;;;;;;;11.35;7.78;;;6.50;99.90;;;;;;5001103;28;20038;-72
2022/03/28 05:01:58;;;;;;;11.80;7.07;;;6.50;99.90;;;;;;5017969;28;20439;-72
2022/03/28 05:04:24;;;;;;;9.32;6.82;;;6.50;99.90;;;;;;5018464;28;20034;-72
2022/03/28 05:06:50;;;;;;;9.93;7.32;;;6.50;99.90;;;;;;5018422;28;20394;-71
2022/03/28 05:09:15;;;;;;;9.18;7.10;;;6.50;99.90;;;;;;5018142;28;20048;-72
2022/03/28 05:11:41;;;;;;;10.07;7.60;;;6.50;99.90;;;;;;5018041;28;20037;-71
2022/03/28 05:14:08;;;;;;;10.40;7.40;;;6.50;99.90;;;;;;5018549;28;20032;-71
2022/03/28 05:16:34;;;;;;;12.70;7.88;;;6.50;99.90;;;;;;5017549;28;21538;-70
2022/03/28 05:19:00;;;;;;;13.35;7.90;;;6.50;99.90;;;;;;5018044;28;20107;-72
2022/03/28 05:21:25;;;;;;;9.57;7.75;;;6.50;99.90;;;;;;5018163;28;20084;-73
2022/03/28 05:23:51;;;;;;;9.35;8.13;;;6.50;99.90;;;;;;5017727;28;20042;-72
2022/03/28 05:26:16;;;;;;;11.35;7.68;;;6.50;99.90;;;;;;5017972;28;20516;-71
2022/03/28 05:28:42;;;;;;;12.00;9.13;;;6.50;99.90;;;;;;5017816;28;20038;-72
2022/03/28 05:31:07;;;;;;;12.50;8.55;;;6.50;99.90;;;;;;5017236;28;20037;-71
2022/03/28 05:33:33;;;;;;;11.25;8.38;;;6.50;99.90;;;;;;5017324;28;20046;-73
2022/03/28 05:35:59;;;;;;;9.57;8.30;;;6.50;99.90;;;;;;5017274;28;20038;-72
2022/03/28 05:38:25;;;;;;;11.88;8.65;;;6.50;99.90;;;;;;5017745;28;20057;-72
2022/03/28 05:40:51;;;;;;;10.00;8.13;;;6.50;99.90;;;;;;5017833;28;20046;-71
2022/03/28 05:43:17;;;;;;;11.88;9.35;;;6.50;99.90;;;;;;5017253;28;20034;-72
2022/03/28 05:45:42;;;;;;;11.88;8.82;;;6.50;99.90;;;;;;5016702;28;20045;-72
2022/03/28 05:48:08;;;;;;;10.70;8.52;;;6.50;99.90;;;;;;5024605;28;20071;-71
2022/03/28 05:50:34;;;;;;;10.13;9.00;;;6.50;99.90;;;;;;5037034;28;20037;-71
2022/03/28 05:53:00;;;;;;;13.02;8.85;;;6.60;99.90;;;;;;5036874;28;20049;-73
2022/03/28 05:55:26;;;;;;;12.45;8.40;;;6.60;99.90;;;;;;5037219;28;20087;-72
2022/03/28 05:57:52;;;;;;;12.18;8.85;;;6.60;99.90;;;;;;5037116;28;20033;-72
2022/03/28 06:00:17;;;;;;;12.25;10.20;;;6.60;99.90;;;;;;5036889;28;20103;-72
2022/03/28 06:02:43;;;;;;;11.10;9.00;;;6.60;99.90;;;;;;5019565;28;20440;-72
2022/03/28 06:05:10;;;;;;;13.73;10.15;;;6.60;99.90;;;;;;5017176;28;20344;-71
2022/03/28 06:07:36;;;;;;;13.57;9.75;;;6.60;99.90;;;;;;5016864;28;20077;-72
2022/03/28 06:10:03;;;;;;;11.90;10.23;;;6.60;99.90;;;;;;5016883;28;20096;-71
2022/03/28 06:12:29;;;;;;;12.40;9.88;;;6.60;99.90;;;;;;5017067;28;20048;-72
2022/03/28 06:14:54;;;;;;;13.90;11.55;;;6.70;99.90;;;;;;5017008;28;20046;-72
2022/03/28 06:17:24;;;;;;;13.63;9.85;;;6.70;99.90;;;;;;5013628;28;20140;-72
2022/03/28 06:19:50;;;;;;;13.95;10.35;;;6.70;99.90;;;;;;5017131;28;20034;-72
2022/03/28 06:22:16;;;;;;;12.35;10.25;;;6.70;99.90;;;;;;5016699;28;20034;-73
2022/03/28 06:24:43;;;;;;;14.30;10.82;;;6.60;99.90;;;;;;5017000;28;20034;-72
2022/03/28 06:27:09;;;;;;;12.80;10.57;;;6.60;99.90;;;;;;5020118;28;20491;-72
2022/03/28 06:29:34;;;;;;;12.02;10.65;;;6.60;99.90;;;;;;5036491;28;20127;-72
2022/03/28 06:32:00;;;;;;;13.60;11.00;;;6.60;99.90;;;;;;5036516;28;20038;-73
2022/03/28 06:34:25;;;;;;;16.10;11.15;;;6.60;99.90;;;;;;5036203;28;20067;-71
2022/03/28 06:36:51;;;;;;;14.30;10.65;;;6.70;99.90;;;;;;5036272;28;20438;-71
2022/03/28 06:39:16;;;;;;;13.85;9.98;;;6.70;99.90;;;;;;5036250;28;20498;-71
2022/03/28 06:41:42;;;;;;;13.75;11.60;;;6.70;99.90;;;;;;5018288;28;20506;-71
2022/03/28 06:44:11;;;;;;;12.70;10.85;;;6.70;99.90;;;;;;5036629;28;20343;-72
2022/03/28 06:46:39;;;;;;;12.10;10.55;;;6.70;99.90;;;;;;5034471;28;20041;-71
2022/03/28 06:49:05;;;;;;;14.02;12.15;;;6.80;99.90;;;;;;4998201;28;20053;-72
2022/03/28 06:51:31;;;;;;;13.10;9.68;;;6.80;99.90;;;;;;5016285;28;20038;-71
2022/03/28 06:53:56;;;;;;;11.55;9.98;;;6.80;99.90;;;;;;5000066;28;20084;-71
2022/03/28 06:56:22;;;;;;;14.23;10.95;;;6.80;99.90;;;;;;5014037;28;20038;-71
2022/03/28 06:58:47;;;;;;;12.98;10.82;;;6.80;99.90;;;;;;5015669;28;20034;-73
2022/03/28 07:01:13;;;;;;;13.68;10.18;;;6.80;99.90;;;;;;5014277;28;20059;-72
2022/03/28 07:03:39;;;;;;;12.52;10.30;;;6.70;99.90;;;;;;5035750;28;20048;-72
2022/03/28 07:06:05;;;;;;;11.65;9.55;;;6.70;99.90;;;;;;4984834;28;20447;-72
2022/03/28 07:08:30;;;;;;;12.98;10.13;;;6.60;99.90;;;;;;5035816;28;20439;-73
2022/03/28 07:10:58;;;;;;;12.60;9.98;;;6.60;99.90;;;;;;5018728;28;20052;-71
2022/03/28 07:13:23;;;;;;;11.98;9.85;;;6.70;99.90;;;;;;5017830;28;20049;-72
2022/03/28 07:15:49;;;;;;;12.10;9.73;;;6.70;99.90;;;;;;5021728;28;20044;-73
2022/03/28 07:18:15;;;;;;;12.80;9.60;;;6.80;99.90;;;;;;5015700;28;20037;-70
2022/03/28 07:20:43;;;;;;;13.07;9.70;;;6.80;99.90;;;;;;5015421;28;20052;-71
2022/03/28 07:23:09;;;;;;;12.98;9.45;;;6.70;99.90;;;;;;5016828;28;20046;-72
2022/03/28 07:25:36;;;;;;;12.07;9.07;;;6.80;99.90;;;;;;5015650;28;20075;-72
2022/03/28 07:28:09;;;;;;;10.60;8.50;;;6.90;99.90;;;;;;5015943;28;20041;-72
2022/03/28 07:30:34;;;;;;;11.75;8.88;;;6.90;99.90;;;;;;5015606;28;20100;-72
2022/03/28 07:33:02;;;;;;;11.95;8.40;;;7.00;99.90;;;;;;5015426;28;20400;-71
2022/03/28 07:35:29;;;;;;;12.45;9.48;;;7.00;99.90;;;;;;5015377;28;20048;-72
2022/03/28 07:37:55;;;;;;;11.90;8.23;;;7.10;99.90;;;;;;5018463;28;20041;-72
2022/03/28 07:40:21;;;;;;;11.90;7.22;;;7.20;99.90;;;;;;5016187;28;20339;-72
2022/03/28 07:42:47;;;;;;;9.40;6.82;;;7.20;99.90;;;;;;5018573;28;20424;-73
2022/03/28 07:45:14;;;;;;;12.07;7.18;;;7.20;99.90;;;;;;5035286;28;20091;-73
2022/03/28 07:47:40;;;;;;;7.80;6.00;;;7.20;99.90;;;;;;5034860;28;20084;-73
2022/03/28 07:50:06;;;;;;;7.47;5.65;;;7.30;99.90;;;;;;5034985;28;20091;-73
2022/03/28 07:52:32;;;;;;;8.43;5.75;;;7.30;99.90;;;;;;5018161;28;20141;-73
2022/03/28 07:54:58;;;;;;;8.35;5.30;;;7.30;99.90;;;;;;5017913;28;20120;-73
2022/03/28 07:57:24;;;;;;;7.07;4.90;;;7.30;99.90;;;;;;5034723;28;20038;-73
2022/03/28 07:59:50;;;;;;;7.38;4.93;;;7.40;99.90;;;;;;5034880;28;20099;-73
2022/03/28 08:02:16;;;;;;;7.10;4.90;;;7.40;99.90;;;;;;5017131;28;20041;-73
2022/03/28 08:04:43;;;;;;;7.93;5.10;;;7.50;99.90;;;;;;5017770;28;20523;-73
2022/03/28 08:07:10;;;;;;;6.72;4.90;;;7.40;99.90;;;;;;5017961;28;20115;-73
2022/03/28 08:09:36;;;;;;;7.57;5.38;;;7.50;99.90;;;;;;5034446;28;20132;-73
2022/03/28 08:12:03;;;;;;;8.85;5.80;;;7.50;99.90;;;;;;5015483;28;20037;-73
2022/03/28 08:14:28;;;;;;;8.48;5.47;;;7.50;99.90;;;;;;5031207;28;20131;-73
2022/03/28 08:16:55;;;;;;;7.15;5.13;;;7.40;99.90;;;;;;5016931;28;20049;-73
2022/03/28 08:19:21;;;;;;;9.00;6.13;;;7.40;99.90;;;;;;5034957;28;20041;-72
2022/03/28 08:21:47;;;;;;;7.35;5.80;;;7.40;99.90;;;;;;5034725;28;20049;-73
2022/03/28 08:24:13;;;;;;;7.55;5.45;;;7.50;99.90;;;;;;5031206;28;20049;-73
2022/03/28 08:26:38;;;;;;;7.68;5.65;;;7.50;99.90;;;;;;5029793;28;20431;-73
2022/03/28 08:29:05;;;;;;;11.07;7.20;;;7.50;99.90;;;;;;5034717;28;20073;-73
2022/03/28 08:31:31;;;;;;;10.57;8.10;;;7.60;99.90;;;;;;5015218;28;20115;-72
2022/03/28 08:33:57;;;;;;;10.02;7.43;;;7.60;99.90;;;;;;5051743;28;20036;-73
2022/03/28 08:36:23;;;;;;;10.50;7.93;;;7.60;99.90;;;;;;5054454;28;20427;-73
2022/03/28 08:38:49;;;;;;;10.55;8.07;;;7.60;99.90;;;;;;5037686;28;20132;-73
2022/03/28 08:41:17;;;;;;;10.35;8.05;;;7.60;99.90;;;;;;5054720;28;20474;-73
2022/03/28 08:43:42;;;;;;;13.20;8.48;;;7.60;99.90;;;;;;5037004;28;20076;-73
2022/03/28 08:46:09;;;;;;;12.20;9.25;;;7.70;99.90;;;;;;5053921;28;20091;-73
2022/03/28 08:48:40;;;;;;;12.40;8.50;;;7.80;99.90;;;;;;5054281;28;20466;-72
2022/03/28 08:51:11;;;;;;;12.10;9.07;;;7.90;99.90;;;;;;5036675;28;20098;-73
2022/03/28 08:53:37;;;;;;;12.70;9.02;;;7.90;99.90;;;;;;5054762;28;20044;-72
2022/03/28 08:56:04;;;;;;;10.90;9.20;;;8.00;99.90;;;;;;5036912;28;20068;-73
2022/03/28 08:58:29;;;;;;;13.48;9.77;;;8.10;99.90;;;;;;5053972;28;20048;-73
2022/03/28 09:00:55;;;;;;;12.85;9.88;;;8.10;99.90;;;;;;5053190;28;20045;-73
2022/03/28 09:03:35;;;;;;;13.68;10.73;;;8.10;99.90;;;;;;5035789;28;20439;-73
2022/03/28 09:06:05;;;;;;;14.95;10.63;;;7.90;99.90;;;;;;5054532;28;20047;-73
2022/03/28 09:08:37;;;;;;;13.45;11.35;;;7.90;99.90;;;;;;5036705;28;20049;-73
2022/03/28 09:11:19;;;;;;;17.40;11.73;;;7.90;99.90;;;;;;5054002;28;20442;-73
2022/03/28 09:13:48;;;;;;;14.18;11.23;;;7.90;99.90;;;;;;5053750;28;20045;-73
2022/03/28 09:16:19;;;;;;;12.80;9.88;;;8.00;99.90;;;;;;5047657;28;20033;-73
2022/03/28 09:18:45;;;;;;;15.18;12.10;;;8.10;99.90;;;;;;5034406;28;20120;-73
2022/03/28 09:21:14;;;;;;;13.98;10.95;;;8.20;99.90;;;;;;5035974;28;20137;-73
2022/03/28 09:23:49;;;;;;;14.23;11.43;;;8.20;99.90;;;;;;5037556;28;20313;-74
2022/03/28 09:26:20;;;;;;;14.55;11.73;;;8.30;99.90;;;;;;5037765;28;20046;-72
2022/03/28 09:28:49;;;;;;;19.00;12.93;;;8.40;99.90;;;;;;5038311;28;20379;-72
2022/03/28 09:31:24;;;;;;;16.27;12.70;;;8.30;99.90;;;;;;5038698;28;20072;-71
2022/03/28 09:33:58;;;;;;;15.55;13.15;;;8.40;99.90;;;;;;5057560;28;20033;-73
2022/03/28 09:36:44;;;;;;;14.18;11.55;;;8.50;99.90;;;;;;5039980;28;20373;-72
2022/03/28 09:39:13;;;;;;;16.60;12.95;;;8.40;99.90;;;;;;5057986;28;20072;-72
2022/03/28 09:41:39;;;;;;;17.33;13.45;;;8.50;99.90;;;;;;5057350;28;20317;-72
2022/03/28 09:44:07;;;;;;;14.63;12.90;;;8.30;99.90;;;;;;5055671;28;20091;-70
2022/03/28 09:46:34;;;;;;;19.42;13.38;;;8.30;99.90;;;;;;5038432;28;20124;-69
2022/03/28 09:49:00;;;;;;;17.17;12.85;;;8.30;99.90;;;;;;5019786;28;20475;-70
2022/03/28 09:51:32;;;;;;;17.00;13.20;;;8.40;99.90;;;;;;5037573;28;20033;-70
2022/03/28 09:53:59;;;;;;;14.38;12.57;;;8.50;99.90;;;;;;5037570;28;20037;-70
2022/03/28 09:56:25;;;;;;;16.30;12.00;;;8.60;99.90;;;;;;5037174;28;20333;-70
2022/03/28 09:59:01;;;;;;;14.45;12.25;;;8.80;99.90;;;;;;5035989;28;20041;-71
2022/03/28 10:01:38;;;;;;;16.98;12.20;;;8.80;99.90;;;;;;5036578;28;20052;-70
2022/03/28 10:04:08;;;;;;;16.00;12.27;;;8.90;99.90;;;;;;5037397;28;20136;-71
2022/03/28 10:06:34;;;;;;;12.80;10.32;;;8.90;99.90;;;;;;5037216;28;20043;-71
2022/03/28 10:09:00;;;;;;;15.45;10.93;;;9.00;99.90;;;;;;5019755;28;20527;-71
2022/03/28 10:11:27;;;;;;;14.25;10.45;;;9.10;99.90;;;;;;5036866;28;20120;-70
2022/03/28 10:13:53;;;;;;;12.90;10.95;;;9.10;99.90;;;;;;5036712;28;20479;-70
2022/03/28 10:16:19;;;;;;;12.73;11.15;;;9.20;99.90;;;;;;5039884;28;20035;-70
2022/03/28 10:18:46;;;;;;;12.85;11.48;;;9.30;99.90;;;;;;5046129;28;20044;-71
2022/03/28 10:21:27;;;;;;;12.05;10.70;;;9.30;99.90;;;;;;5056275;28;20101;-70
2022/03/28 10:24:03;;;;;;;14.63;11.52;;;9.30;99.90;;;;;;5056452;28;20045;-71
2022/03/28 10:26:32;;;;;;;13.43;10.88;;;9.30;99.90;;;;;;5052247;28;20664;-70
2022/03/28 10:29:10;;;;;;;13.63;11.98;;;9.30;99.90;;;;;;5036586;28;20056;-71
2022/03/28 10:31:55;;;;;;;13.93;11.23;;;9.40;99.90;;;;;;5036271;28;20045;-71
2022/03/28 10:34:52;;;;;;;16.58;12.07;;;9.30;99.90;;;;;;5036723;28;20041;-70
2022/03/28 10:37:29;;;;;;;14.77;10.90;;;9.20;99.90;;;;;;5036347;28;20095;-70
2022/03/28 10:40:21;;;;;;;13.57;11.45;;;9.30;99.90;;;;;;5036242;28;20351;-70
2022/03/28 10:43:13;;;;;;;16.13;11.20;;;9.50;99.90;;;;;;5018737;28;20037;-70
2022/03/28 10:45:49;;;;;;;13.65;11.75;;;9.60;99.90;;;;;;5049170;28;20123;-70
2022/03/28 10:48:16;;;;;;;13.40;11.45;;;9.70;99.90;;;;;;5038667;28;20045;-70
2022/03/28 10:50:49;;;;;;;12.82;10.93;;;9.80;99.90;;;;;;5056145;28;20049;-70
2022/03/28 10:53:29;;;;;;;13.85;11.18;;;9.90;99.90;;;;;;5056167;28;20048;-71
2022/03/28 10:56:02;;;;;;;13.07;11.65;;;10.10;99.90;;;;;;5055980;28;20091;-70
2022/03/28 10:58:36;;;;;;;13.65;11.82;;;9.90;99.90;;;;;;5056088;28;20080;-70
2022/03/28 11:01:13;;;;;;;14.23;12.73;;;9.90;99.90;;;;;;5055449;28;20052;-69
2022/03/28 11:03:42;;;;;;;16.45;12.73;;;9.80;99.90;;;;;;5055966;28;20128;-70
2022/03/28 11:06:08;;;;;;;15.45;13.07;;;9.80;99.90;;;;;;5055803;28;20455;-70
2022/03/28 11:08:43;;;;;;;14.00;12.07;;;9.70;99.90;;;;;;5055588;28;20041;-70
2022/03/28 11:11:33;;;;;;;15.38;11.70;;;9.70;99.90;;;;;;5055574;28;20044;-70
2022/03/28 11:14:10;;;;;;;13.93;12.32;;;9.80;99.90;;;;;;5046359;28;20356;-70
2022/03/28 11:16:43;;;;;;;14.27;12.23;;;9.80;99.90;;;;;;5035413;28;20360;-70
2022/03/28 11:19:25;;;;;;;14.93;12.13;;;9.90;99.90;;;;;;5048677;28;20041;-70
2022/03/28 11:21:59;;;;;;;13.10;11.80;;;9.80;99.90;;;;;;5055553;28;20106;-70
2022/03/28 11:24:56;;;;;;;15.02;11.70;;;9.80;99.90;;;;;;5055454;28;20076;-70
2022/03/28 11:27:34;;;;;;;13.65;11.45;;;9.90;99.90;;;;;;5034860;28;20175;-70
2022/03/28 11:30:06;;;;;;;12.65;11.35;;;10.00;99.90;;;;;;5035107;28;20048;-70
2022/03/28 11:32:35;;;;;;;16.13;12.48;;;10.10;99.90;;;;;;5036311;28;20056;-70
2022/03/28 11:35:01;;;;;;;14.90;11.82;;;10.30;99.90;;;;;;5015574;28;20189;-70
2022/03/28 11:37:29;;;;;;;12.88;11.27;;;10.60;99.90;;;;;;5054955;28;20127;-70
2022/03/28 11:40:07;;;;;;;14.05;11.60;;;10.80;99.90;;;;;;5055265;28;20063;-72
2022/03/28 11:42:34;;;;;;;13.82;12.43;;;11.00;99.90;;;;;;5037549;28;20070;-71
2022/03/28 11:45:08;;;;;;;13.20;11.40;;;10.90;99.90;;;;;;5055035;28;20041;-72
2022/03/28 11:47:36;;;;;;;14.48;12.18;;;11.00;99.90;;;;;;5055033;28;20541;-71
2022/03/28 11:50:04;;;;;;;15.38;12.27;;;11.00;99.90;;;;;;5027248;28;20044;-71
2022/03/28 11:52:30;;;;;;;16.50;11.43;;;11.10;99.90;;;;;;5035089;28;20076;-70
2022/03/28 11:54:58;;;;;;;15.38;11.10;;;11.30;99.90;;;;;;5035126;28;20134;-70
2022/03/28 12:00:21;;;;;;;14.30;12.52;;;11.70;99.90;;;;;;5040196;28;20790;-71
2022/03/28 12:02:54;;;;;;;17.27;12.15;;;11.90;99.90;;;;;;5054621;28;20375;-70
2022/03/28 12:05:31;;;;;;;13.80;11.90;;;11.80;99.90;;;;;;5054896;28;20036;-71
2022/03/28 12:07:58;;;;;;;12.93;11.40;;;11.80;99.90;;;;;;5037307;28;20045;-70
2022/03/28 12:10:34;;;;;;;15.07;11.48;;;11.90;99.90;;;;;;5054979;28;20048;-71
2022/03/28 12:13:03;;;;;;;14.63;11.65;;;12.10;99.90;;;;;;5054662;28;20044;-70
2022/03/28 12:15:32;;;;;;;15.23;11.98;;;12.10;99.90;;;;;;5052452;28;20550;-70
2022/03/28 12:17:59;;;;;;;16.17;12.02;;;12.10;99.90;;;;;;5050930;28;20033;-70
2022/03/28 12:20:33;;;;;;;14.07;12.48;;;12.00;99.90;;;;;;5034765;28;20041;-70
2022/03/28 12:23:01;;;;;;;15.25;12.30;;;12.10;99.90;;;;;;5034568;28;20052;-70
2022/03/28 12:25:38;;;;;;;16.60;13.55;;;11.80;99.90;;;;;;5034811;28;20049;-70
2022/03/28 12:28:07;;;;;;;18.77;12.35;;;12.30;99.90;;;;;;5017907;28;20060;-70
2022/03/28 12:30:39;;;;;;;15.82;13.55;;;12.40;99.90;;;;;;5049555;28;20040;-71
2022/03/28 12:33:17;;;;;;;13.80;11.93;;;12.40;99.90;;;;;;5054542;28;20060;-70
2022/03/28 12:35:46;;;;;;;14.15;12.63;;;12.80;99.90;;;;;;5054203;28;20052;-70
2022/03/28 12:38:18;;;;;;;14.13;12.23;;;12.90;99.90;;;;;;5054473;28;20045;-71
2022/03/28 12:40:45;;;;;;;14.82;13.13;;;13.10;99.90;;;;;;5050916;28;20141;-70
2022/03/28 12:43:14;;;;;;;17.33;14.73;;;13.30;99.90;;;;;;5034473;28;20398;-70
2022/03/28 12:45:42;;;;;;;15.73;14.13;;;12.60;99.90;;;;;;5034047;28;20046;-70
2022/03/28 12:48:08;;;;;;;16.75;13.73;;;12.80;99.90;;;;;;5033998;28;20045;-70
2022/03/28 12:50:35;;;;;;;19.98;13.98;;;12.60;99.90;;;;;;5034247;28;20053;-70
2022/03/28 12:53:08;;;;;;;16.00;13.90;;;12.70;99.90;;;;;;5034240;28;20049;-71
2022/03/28 12:55:34;;;;;;;17.05;13.10;;;13.00;99.90;;;;;;5035655;28;20033;-70